sensor_id;sensor_type;location;lat;lon;timestamp;P1;durP1;ratioP1;P2;durP2;ratioP2
32964;SDS011;19317;48.226;11.686;2022-10-31T00:02:42;10.37;;;5.10;;
32964;SDS011;19317;48.226;11.686;2022-10-31T00:07:33;8.03;;;4.67;;
32964;SDS011;19317;48.226;11.686;2022-10-31T00:12:23;10.10;;;4.80;;
32964;SDS011;19317;48.226;11.686;2022-10-31T00:17:14;7.00;;;4.73;;
32964;SDS011;19317;48.226;11.686;2022-10-31T00:22:05;6.67;;;4.57;;
32964;SDS011;19317;48.226;11.686;2022-10-31T00:26:56;9.17;;;4.63;;
32964;SDS011;19317;48.226;11.686;2022-10-31T00:31:47;8.57;;;4.73;;
32964;SDS011;19317;48.226;11.686;2022-10-31T00:36:38;6.67;;;4.27;;
32964;SDS011;19317;48.226;11.686;2022-10-31T00:41:29;8.00;;;4.50;;
32964;SDS011;19317;48.226;11.686;2022-10-31T00:46:20;4.43;;;3.67;;
32964;SDS011;19317;48.226;11.686;2022-10-31T00:51:10;8.53;;;3.90;;
32964;SDS011;19317;48.226;11.686;2022-10-31T00:56:02;9.17;;;3.90;;
32964;SDS011;19317;48.226;11.686;2022-10-31T01:00:53;7.33;;;4.53;;
32964;SDS011;19317;48.226;11.686;2022-10-31T01:05:44;7.30;;;4.70;;
32964;SDS011;19317;48.226;11.686;2022-10-31T01:10:34;7.63;;;4.17;;
32964;SDS011;19317;48.226;11.686;2022-10-31T01:15:25;6.30;;;3.80;;
32964;SDS011;19317;48.226;11.686;2022-10-31T01:20:17;8.23;;;3.97;;
32964;SDS011;19317;48.226;11.686;2022-10-31T01:25:08;7.30;;;4.40;;
32964;SDS011;19317;48.226;11.686;2022-10-31T01:29:59;8.43;;;4.10;;
32964;SDS011;19317;48.226;11.686;2022-10-31T01:34:50;7.00;;;3.87;;
32964;SDS011;19317;48.226;11.686;2022-10-31T01:39:41;7.67;;;4.77;;
32964;SDS011;19317;48.226;11.686;2022-10-31T01:49:23;7.77;;;4.60;;
32964;SDS011;19317;48.226;11.686;2022-10-31T01:54:16;3.93;;;3.23;;
32964;SDS011;19317;48.226;11.686;2022-10-31T01:59:09;6.63;;;3.87;;
32964;SDS011;19317;48.226;11.686;2022-10-31T02:04:01;5.33;;;3.50;;
32964;SDS011;19317;48.226;11.686;2022-10-31T02:08:52;6.53;;;3.40;;
32964;SDS011;19317;48.226;11.686;2022-10-31T02:13:44;6.47;;;3.70;;
32964;SDS011;19317;48.226;11.686;2022-10-31T02:18:35;5.27;;;3.50;;
32964;SDS011;19317;48.226;11.686;2022-10-31T02:38:13;5.30;;;3.33;;
32964;SDS011;19317;48.226;11.686;2022-10-31T02:48:08;7.00;;;3.60;;
32964;SDS011;19317;48.226;11.686;2022-10-31T02:53:00;5.43;;;3.50;;
32964;SDS011;19317;48.226;11.686;2022-10-31T02:57:52;5.33;;;4.17;;
32964;SDS011;19317;48.226;11.686;2022-10-31T03:07:51;6.10;;;3.80;;
32964;SDS011;19317;48.226;11.686;2022-10-31T03:12:47;6.43;;;3.77;;
32964;SDS011;19317;48.226;11.686;2022-10-31T03:17:45;4.83;;;3.50;;
32964;SDS011;19317;48.226;11.686;2022-10-31T03:22:37;6.50;;;3.30;;
32964;SDS011;19317;48.226;11.686;2022-10-31T03:27:32;7.07;;;3.70;;
32964;SDS011;19317;48.226;11.686;2022-10-31T03:32:46;4.67;;;3.17;;
32964;SDS011;19317;48.226;11.686;2022-10-31T03:37:35;3.87;;;3.33;;
32964;SDS011;19317;48.226;11.686;2022-10-31T03:42:27;7.43;;;3.23;;
32964;SDS011;19317;48.226;11.686;2022-10-31T03:47:20;4.63;;;3.33;;
32964;SDS011;19317;48.226;11.686;2022-10-31T04:02:13;4.73;;;2.90;;
32964;SDS011;19317;48.226;11.686;2022-10-31T04:07:04;4.77;;;2.80;;
32964;SDS011;19317;48.226;11.686;2022-10-31T04:11:56;3.37;;;2.70;;
32964;SDS011;19317;48.226;11.686;2022-10-31T04:16:48;3.90;;;2.70;;
32964;SDS011;19317;48.226;11.686;2022-10-31T04:21:39;3.13;;;2.40;;
32964;SDS011;19317;48.226;11.686;2022-10-31T04:26:30;3.63;;;2.20;;
32964;SDS011;19317;48.226;11.686;2022-10-31T04:31:21;2.53;;;2.30;;
32964;SDS011;19317;48.226;11.686;2022-10-31T04:36:12;2.50;;;2.30;;
32964;SDS011;19317;48.226;11.686;2022-10-31T04:41:03;6.10;;;2.23;;
32964;SDS011;19317;48.226;11.686;2022-10-31T04:45:54;4.83;;;2.70;;
32964;SDS011;19317;48.226;11.686;2022-10-31T04:50:45;2.80;;;2.20;;
32964;SDS011;19317;48.226;11.686;2022-10-31T04:55:36;2.77;;;2.40;;
32964;SDS011;19317;48.226;11.686;2022-10-31T05:00:27;4.50;;;2.33;;
32964;SDS011;19317;48.226;11.686;2022-10-31T05:05:19;4.13;;;2.87;;
32964;SDS011;19317;48.226;11.686;2022-10-31T05:10:11;5.37;;;2.37;;
32964;SDS011;19317;48.226;11.686;2022-10-31T05:15:03;4.07;;;2.53;;
32964;SDS011;19317;48.226;11.686;2022-10-31T05:19:54;3.37;;;2.43;;
32964;SDS011;19317;48.226;11.686;2022-10-31T05:24:45;7.60;;;3.30;;
32964;SDS011;19317;48.226;11.686;2022-10-31T05:29:36;6.87;;;2.87;;
32964;SDS011;19317;48.226;11.686;2022-10-31T05:34:27;3.23;;;2.20;;
32964;SDS011;19317;48.226;11.686;2022-10-31T05:39:17;4.13;;;2.30;;
32964;SDS011;19317;48.226;11.686;2022-10-31T05:44:08;3.10;;;2.23;;
32964;SDS011;19317;48.226;11.686;2022-10-31T05:48:59;3.57;;;2.20;;
32964;SDS011;19317;48.226;11.686;2022-10-31T05:53:50;4.70;;;2.10;;
32964;SDS011;19317;48.226;11.686;2022-10-31T05:58:41;3.47;;;2.13;;
32964;SDS011;19317;48.226;11.686;2022-10-31T06:03:32;2.97;;;2.03;;
32964;SDS011;19317;48.226;11.686;2022-10-31T06:08:23;6.00;;;2.40;;
32964;SDS011;19317;48.226;11.686;2022-10-31T06:13:14;2.70;;;2.07;;
32964;SDS011;19317;48.226;11.686;2022-10-31T06:18:05;3.37;;;2.10;;
32964;SDS011;19317;48.226;11.686;2022-10-31T06:22:56;2.77;;;2.10;;
32964;SDS011;19317;48.226;11.686;2022-10-31T06:27:47;3.13;;;2.20;;
32964;SDS011;19317;48.226;11.686;2022-10-31T06:32:38;2.83;;;2.20;;
32964;SDS011;19317;48.226;11.686;2022-10-31T06:37:29;5.27;;;2.27;;
32964;SDS011;19317;48.226;11.686;2022-10-31T06:42:19;5.23;;;2.07;;
32964;SDS011;19317;48.226;11.686;2022-10-31T06:47:10;6.10;;;2.60;;
32964;SDS011;19317;48.226;11.686;2022-10-31T06:52:01;4.07;;;2.17;;
32964;SDS011;19317;48.226;11.686;2022-10-31T06:56:52;2.93;;;2.20;;
32964;SDS011;19317;48.226;11.686;2022-10-31T07:01:43;2.83;;;2.10;;
32964;SDS011;19317;48.226;11.686;2022-10-31T07:06:34;3.43;;;2.10;;
32964;SDS011;19317;48.226;11.686;2022-10-31T07:11:25;3.10;;;2.20;;
32964;SDS011;19317;48.226;11.686;2022-10-31T07:16:15;7.97;;;3.87;;
32964;SDS011;19317;48.226;11.686;2022-10-31T07:21:06;3.93;;;1.97;;
32964;SDS011;19317;48.226;11.686;2022-10-31T07:25:58;3.00;;;2.20;;
32964;SDS011;19317;48.226;11.686;2022-10-31T07:30:49;5.47;;;2.30;;
32964;SDS011;19317;48.226;11.686;2022-10-31T07:35:40;3.60;;;2.23;;
32964;SDS011;19317;48.226;11.686;2022-10-31T07:40:31;3.80;;;2.13;;
32964;SDS011;19317;48.226;11.686;2022-10-31T07:45:22;10.53;;;3.67;;
32964;SDS011;19317;48.226;11.686;2022-10-31T07:50:16;4.40;;;2.80;;
32964;SDS011;19317;48.226;11.686;2022-10-31T07:55:07;5.27;;;2.27;;
32964;SDS011;19317;48.226;11.686;2022-10-31T07:59:58;4.20;;;2.80;;
32964;SDS011;19317;48.226;11.686;2022-10-31T08:04:49;7.37;;;3.70;;
32964;SDS011;19317;48.226;11.686;2022-10-31T08:09:40;10.00;;;3.60;;
32964;SDS011;19317;48.226;11.686;2022-10-31T08:14:31;4.17;;;2.30;;
32964;SDS011;19317;48.226;11.686;2022-10-31T08:19:21;4.00;;;2.77;;
32964;SDS011;19317;48.226;11.686;2022-10-31T08:24:12;10.13;;;3.00;;
32964;SDS011;19317;48.226;11.686;2022-10-31T08:29:03;5.03;;;2.90;;
32964;SDS011;19317;48.226;11.686;2022-10-31T08:33:54;5.03;;;2.80;;
32964;SDS011;19317;48.226;11.686;2022-10-31T08:38:46;5.60;;;3.07;;
32964;SDS011;19317;48.226;11.686;2022-10-31T08:43:37;4.87;;;3.17;;
32964;SDS011;19317;48.226;11.686;2022-10-31T08:48:28;5.57;;;3.10;;
32964;SDS011;19317;48.226;11.686;2022-10-31T08:53:19;5.53;;;3.97;;
32964;SDS011;19317;48.226;11.686;2022-10-31T08:58:11;5.70;;;3.80;;
32964;SDS011;19317;48.226;11.686;2022-10-31T09:03:03;6.30;;;3.57;;
32964;SDS011;19317;48.226;11.686;2022-10-31T09:07:55;5.97;;;3.10;;
32964;SDS011;19317;48.226;11.686;2022-10-31T09:12:46;7.67;;;3.60;;
32964;SDS011;19317;48.226;11.686;2022-10-31T09:17:37;7.03;;;3.60;;
32964;SDS011;19317;48.226;11.686;2022-10-31T09:22:28;8.03;;;4.33;;
32964;SDS011;19317;48.226;11.686;2022-10-31T09:27:19;6.37;;;3.67;;
32964;SDS011;19317;48.226;11.686;2022-10-31T09:32:10;5.60;;;3.93;;
32964;SDS011;19317;48.226;11.686;2022-10-31T09:37:00;8.73;;;4.03;;
32964;SDS011;19317;48.226;11.686;2022-10-31T09:51:48;5.90;;;3.87;;
32964;SDS011;19317;48.226;11.686;2022-10-31T09:56:40;10.47;;;3.60;;
32964;SDS011;19317;48.226;11.686;2022-10-31T10:01:38;10.90;;;3.60;;
32964;SDS011;19317;48.226;11.686;2022-10-31T10:06:32;7.73;;;3.53;;
32964;SDS011;19317;48.226;11.686;2022-10-31T10:11:33;6.33;;;3.70;;
32964;SDS011;19317;48.226;11.686;2022-10-31T10:16:32;8.10;;;4.50;;
32964;SDS011;19317;48.226;11.686;2022-10-31T10:26:37;6.33;;;3.60;;
32964;SDS011;19317;48.226;11.686;2022-10-31T10:31:30;15.90;;;5.53;;
32964;SDS011;19317;48.226;11.686;2022-10-31T10:36:30;7.37;;;3.67;;
32964;SDS011;19317;48.226;11.686;2022-10-31T10:41:24;5.30;;;3.30;;
32964;SDS011;19317;48.226;11.686;2022-10-31T10:46:19;5.00;;;3.10;;
32964;SDS011;19317;48.226;11.686;2022-10-31T10:51:15;4.03;;;2.87;;
32964;SDS011;19317;48.226;11.686;2022-10-31T10:56:11;6.40;;;2.80;;
32964;SDS011;19317;48.226;11.686;2022-10-31T11:01:10;4.47;;;2.60;;
32964;SDS011;19317;48.226;11.686;2022-10-31T11:06:01;5.83;;;2.70;;
32964;SDS011;19317;48.226;11.686;2022-10-31T11:11:17;5.07;;;2.60;;
32964;SDS011;19317;48.226;11.686;2022-10-31T11:16:07;2.93;;;2.63;;
32964;SDS011;19317;48.226;11.686;2022-10-31T11:21:00;5.63;;;2.17;;
32964;SDS011;19317;48.226;11.686;2022-10-31T11:25:58;4.33;;;2.70;;
32964;SDS011;19317;48.226;11.686;2022-10-31T11:30:59;3.67;;;2.50;;
32964;SDS011;19317;48.226;11.686;2022-10-31T11:35:50;4.30;;;2.30;;
32964;SDS011;19317;48.226;11.686;2022-10-31T11:40:51;3.17;;;2.10;;
32964;SDS011;19317;48.226;11.686;2022-10-31T11:45:42;5.57;;;2.17;;
32964;SDS011;19317;48.226;11.686;2022-10-31T11:50:35;6.13;;;2.47;;
32964;SDS011;19317;48.226;11.686;2022-10-31T11:55:31;5.50;;;2.60;;
32964;SDS011;19317;48.226;11.686;2022-10-31T12:00:27;6.87;;;2.57;;
32964;SDS011;19317;48.226;11.686;2022-10-31T12:05:18;6.67;;;2.90;;
32964;SDS011;19317;48.226;11.686;2022-10-31T12:10:11;6.90;;;2.40;;
32964;SDS011;19317;48.226;11.686;2022-10-31T12:25:29;6.40;;;2.23;;
32964;SDS011;19317;48.226;11.686;2022-10-31T12:30:26;5.83;;;2.57;;
32964;SDS011;19317;48.226;11.686;2022-10-31T12:45:53;5.50;;;3.60;;
32964;SDS011;19317;48.226;11.686;2022-10-31T12:50:53;5.20;;;2.90;;
32964;SDS011;19317;48.226;11.686;2022-10-31T12:55:52;5.00;;;2.70;;
32964;SDS011;19317;48.226;11.686;2022-10-31T13:00:46;6.63;;;3.20;;
32964;SDS011;19317;48.226;11.686;2022-10-31T13:05:39;4.93;;;3.33;;
32964;SDS011;19317;48.226;11.686;2022-10-31T13:10:35;8.00;;;4.27;;
32964;SDS011;19317;48.226;11.686;2022-10-31T13:15:27;6.83;;;3.33;;
32964;SDS011;19317;48.226;11.686;2022-10-31T13:20:21;8.97;;;3.60;;
32964;SDS011;19317;48.226;11.686;2022-10-31T13:25:14;5.97;;;3.43;;
32964;SDS011;19317;48.226;11.686;2022-10-31T13:30:14;5.30;;;3.90;;
32964;SDS011;19317;48.226;11.686;2022-10-31T13:35:07;8.47;;;4.10;;
32964;SDS011;19317;48.226;11.686;2022-10-31T13:40:20;6.97;;;4.30;;
32964;SDS011;19317;48.226;11.686;2022-10-31T13:45:19;5.33;;;4.27;;
32964;SDS011;19317;48.226;11.686;2022-10-31T13:50:19;10.43;;;5.27;;
32964;SDS011;19317;48.226;11.686;2022-10-31T14:05:30;9.30;;;5.20;;
32964;SDS011;19317;48.226;11.686;2022-10-31T14:10:54;10.33;;;5.87;;
32964;SDS011;19317;48.226;11.686;2022-10-31T14:15:38;8.30;;;5.67;;
32964;SDS011;19317;48.226;11.686;2022-10-31T14:20:36;7.87;;;5.50;;
32964;SDS011;19317;48.226;11.686;2022-10-31T14:25:32;8.77;;;6.03;;
32964;SDS011;19317;48.226;11.686;2022-10-31T14:30:24;8.87;;;5.30;;
32964;SDS011;19317;48.226;11.686;2022-10-31T14:35:15;7.40;;;5.33;;
32964;SDS011;19317;48.226;11.686;2022-10-31T14:40:16;10.23;;;5.33;;
32964;SDS011;19317;48.226;11.686;2022-10-31T14:45:21;8.00;;;5.30;;
32964;SDS011;19317;48.226;11.686;2022-10-31T14:55:11;8.90;;;5.73;;
32964;SDS011;19317;48.226;11.686;2022-10-31T15:00:07;9.40;;;6.50;;
32964;SDS011;19317;48.226;11.686;2022-10-31T15:04:59;8.00;;;6.10;;
32964;SDS011;19317;48.226;11.686;2022-10-31T15:10:01;9.97;;;5.53;;
32964;SDS011;19317;48.226;11.686;2022-10-31T15:14:52;9.87;;;5.37;;
32964;SDS011;19317;48.226;11.686;2022-10-31T15:19:43;8.20;;;5.63;;
32964;SDS011;19317;48.226;11.686;2022-10-31T15:24:35;8.20;;;6.33;;
32964;SDS011;19317;48.226;11.686;2022-10-31T15:29:27;10.90;;;5.80;;
32964;SDS011;19317;48.226;11.686;2022-10-31T15:39:12;39.00;;;6.57;;
32964;SDS011;19317;48.226;11.686;2022-10-31T15:44:04;29.03;;;6.77;;
32964;SDS011;19317;48.226;11.686;2022-10-31T15:48:57;14.07;;;5.77;;
32964;SDS011;19317;48.226;11.686;2022-10-31T15:53:49;9.63;;;5.10;;
32964;SDS011;19317;48.226;11.686;2022-10-31T15:58:44;12.57;;;4.87;;
32964;SDS011;19317;48.226;11.686;2022-10-31T16:03:36;12.87;;;5.20;;
32964;SDS011;19317;48.226;11.686;2022-10-31T16:13:29;8.83;;;5.30;;
32964;SDS011;19317;48.226;11.686;2022-10-31T16:18:20;7.97;;;4.80;;
32964;SDS011;19317;48.226;11.686;2022-10-31T16:23:12;8.43;;;5.17;;
32964;SDS011;19317;48.226;11.686;2022-10-31T16:28:05;12.17;;;5.63;;
32964;SDS011;19317;48.226;11.686;2022-10-31T16:33:04;9.43;;;5.37;;
32964;SDS011;19317;48.226;11.686;2022-10-31T16:37:55;10.30;;;5.27;;
32964;SDS011;19317;48.226;11.686;2022-10-31T16:42:46;10.87;;;5.83;;
32964;SDS011;19317;48.226;11.686;2022-10-31T16:47:37;12.20;;;7.53;;
32964;SDS011;19317;48.226;11.686;2022-10-31T16:52:28;47.43;;;26.77;;
32964;SDS011;19317;48.226;11.686;2022-10-31T16:57:21;19.90;;;11.90;;
32964;SDS011;19317;48.226;11.686;2022-10-31T17:02:14;17.50;;;9.00;;
32964;SDS011;19317;48.226;11.686;2022-10-31T17:07:05;10.57;;;6.00;;
32964;SDS011;19317;48.226;11.686;2022-10-31T17:11:56;6.90;;;5.40;;
32964;SDS011;19317;48.226;11.686;2022-10-31T17:16:47;11.33;;;5.50;;
32964;SDS011;19317;48.226;11.686;2022-10-31T17:21:38;9.73;;;5.40;;
32964;SDS011;19317;48.226;11.686;2022-10-31T17:26:29;9.90;;;5.90;;
32964;SDS011;19317;48.226;11.686;2022-10-31T17:31:21;9.63;;;6.07;;
32964;SDS011;19317;48.226;11.686;2022-10-31T17:36:12;11.47;;;6.40;;
32964;SDS011;19317;48.226;11.686;2022-10-31T17:41:04;11.93;;;8.20;;
32964;SDS011;19317;48.226;11.686;2022-10-31T17:45:57;9.90;;;5.63;;
32964;SDS011;19317;48.226;11.686;2022-10-31T17:50:48;11.40;;;5.77;;
32964;SDS011;19317;48.226;11.686;2022-10-31T17:55:39;13.40;;;5.40;;
32964;SDS011;19317;48.226;11.686;2022-10-31T18:00:30;9.17;;;5.67;;
32964;SDS011;19317;48.226;11.686;2022-10-31T18:05:21;13.60;;;6.07;;
32964;SDS011;19317;48.226;11.686;2022-10-31T18:10:12;8.93;;;5.20;;
32964;SDS011;19317;48.226;11.686;2022-10-31T18:15:03;9.10;;;5.80;;
32964;SDS011;19317;48.226;11.686;2022-10-31T18:19:54;14.33;;;9.13;;
32964;SDS011;19317;48.226;11.686;2022-10-31T18:24:44;8.33;;;5.50;;
32964;SDS011;19317;48.226;11.686;2022-10-31T18:29:36;9.63;;;5.87;;
32964;SDS011;19317;48.226;11.686;2022-10-31T18:34:27;10.70;;;5.90;;
32964;SDS011;19317;48.226;11.686;2022-10-31T18:39:18;26.27;;;19.37;;
32964;SDS011;19317;48.226;11.686;2022-10-31T18:44:09;17.10;;;11.83;;
32964;SDS011;19317;48.226;11.686;2022-10-31T18:49:00;14.40;;;8.70;;
32964;SDS011;19317;48.226;11.686;2022-10-31T18:53:52;9.67;;;6.27;;
32964;SDS011;19317;48.226;11.686;2022-10-31T18:58:43;7.63;;;4.73;;
32964;SDS011;19317;48.226;11.686;2022-10-31T19:03:34;13.37;;;7.77;;
32964;SDS011;19317;48.226;11.686;2022-10-31T19:08:26;10.30;;;6.00;;
32964;SDS011;19317;48.226;11.686;2022-10-31T19:13:16;12.93;;;6.33;;
32964;SDS011;19317;48.226;11.686;2022-10-31T19:18:07;9.33;;;5.53;;
32964;SDS011;19317;48.226;11.686;2022-10-31T19:22:58;10.00;;;5.97;;
32964;SDS011;19317;48.226;11.686;2022-10-31T19:27:49;10.17;;;6.97;;
32964;SDS011;19317;48.226;11.686;2022-10-31T19:32:40;11.43;;;7.70;;
32964;SDS011;19317;48.226;11.686;2022-10-31T19:37:31;12.43;;;9.10;;
32964;SDS011;19317;48.226;11.686;2022-10-31T19:42:22;8.90;;;6.70;;
32964;SDS011;19317;48.226;11.686;2022-10-31T19:47:13;11.07;;;8.03;;
32964;SDS011;19317;48.226;11.686;2022-10-31T19:52:03;12.00;;;7.03;;
32964;SDS011;19317;48.226;11.686;2022-10-31T19:56:54;12.67;;;8.50;;
32964;SDS011;19317;48.226;11.686;2022-10-31T20:01:45;14.53;;;10.90;;
32964;SDS011;19317;48.226;11.686;2022-10-31T20:06:37;25.77;;;13.77;;
32964;SDS011;19317;48.226;11.686;2022-10-31T20:11:28;25.20;;;13.10;;
32964;SDS011;19317;48.226;11.686;2022-10-31T20:16:19;17.60;;;10.13;;
32964;SDS011;19317;48.226;11.686;2022-10-31T20:21:11;20.67;;;12.13;;
32964;SDS011;19317;48.226;11.686;2022-10-31T20:26:02;22.13;;;11.67;;
32964;SDS011;19317;48.226;11.686;2022-10-31T20:30:53;31.13;;;18.47;;
32964;SDS011;19317;48.226;11.686;2022-10-31T20:35:44;26.83;;;16.80;;
32964;SDS011;19317;48.226;11.686;2022-10-31T20:40:35;29.10;;;17.27;;
32964;SDS011;19317;48.226;11.686;2022-10-31T20:45:27;20.13;;;12.53;;
32964;SDS011;19317;48.226;11.686;2022-10-31T20:50:17;15.43;;;10.67;;
32964;SDS011;19317;48.226;11.686;2022-10-31T20:55:08;15.93;;;9.83;;
32964;SDS011;19317;48.226;11.686;2022-10-31T20:59:59;16.13;;;11.50;;
32964;SDS011;19317;48.226;11.686;2022-10-31T21:04:50;17.03;;;10.57;;
32964;SDS011;19317;48.226;11.686;2022-10-31T21:09:41;15.43;;;10.93;;
32964;SDS011;19317;48.226;11.686;2022-10-31T21:14:32;10.80;;;8.43;;
32964;SDS011;19317;48.226;11.686;2022-10-31T21:19:23;10.77;;;6.70;;
32964;SDS011;19317;48.226;11.686;2022-10-31T21:24:16;6.80;;;5.73;;
32964;SDS011;19317;48.226;11.686;2022-10-31T21:29:08;8.03;;;7.20;;
32964;SDS011;19317;48.226;11.686;2022-10-31T21:33:59;12.37;;;7.63;;
32964;SDS011;19317;48.226;11.686;2022-10-31T21:38:50;14.83;;;8.93;;
32964;SDS011;19317;48.226;11.686;2022-10-31T21:43:42;10.40;;;6.43;;
32964;SDS011;19317;48.226;11.686;2022-10-31T21:48:34;7.07;;;5.77;;
32964;SDS011;19317;48.226;11.686;2022-10-31T21:53:25;6.07;;;4.83;;
32964;SDS011;19317;48.226;11.686;2022-10-31T21:58:16;6.33;;;4.90;;
32964;SDS011;19317;48.226;11.686;2022-10-31T22:03:07;4.63;;;4.10;;
32964;SDS011;19317;48.226;11.686;2022-10-31T22:07:57;4.33;;;3.93;;
32964;SDS011;19317;48.226;11.686;2022-10-31T22:12:48;4.23;;;3.83;;
32964;SDS011;19317;48.226;11.686;2022-10-31T22:17:39;4.50;;;3.97;;
32964;SDS011;19317;48.226;11.686;2022-10-31T22:22:30;3.90;;;3.43;;
32964;SDS011;19317;48.226;11.686;2022-10-31T22:27:21;4.77;;;4.10;;
32964;SDS011;19317;48.226;11.686;2022-10-31T22:32:12;9.73;;;6.70;;
32964;SDS011;19317;48.226;11.686;2022-10-31T22:37:03;10.90;;;6.77;;
32964;SDS011;19317;48.226;11.686;2022-10-31T22:41:53;11.00;;;6.80;;
32964;SDS011;19317;48.226;11.686;2022-10-31T22:46:44;12.67;;;7.47;;
32964;SDS011;19317;48.226;11.686;2022-10-31T22:51:36;10.30;;;6.87;;
32964;SDS011;19317;48.226;11.686;2022-10-31T22:56:29;7.90;;;5.97;;
32964;SDS011;19317;48.226;11.686;2022-10-31T23:01:21;7.37;;;4.57;;
32964;SDS011;19317;48.226;11.686;2022-10-31T23:06:31;5.53;;;4.90;;
32964;SDS011;19317;48.226;11.686;2022-10-31T23:11:23;6.27;;;4.67;;
32964;SDS011;19317;48.226;11.686;2022-10-31T23:16:14;7.67;;;5.40;;
32964;SDS011;19317;48.226;11.686;2022-10-31T23:21:06;12.90;;;8.60;;
32964;SDS011;19317;48.226;11.686;2022-10-31T23:25:57;10.90;;;7.63;;
32964;SDS011;19317;48.226;11.686;2022-10-31T23:30:47;12.33;;;6.87;;
32964;SDS011;19317;48.226;11.686;2022-10-31T23:35:38;11.93;;;6.50;;
32964;SDS011;19317;48.226;11.686;2022-10-31T23:40:29;9.70;;;6.63;;
32964;SDS011;19317;48.226;11.686;2022-10-31T23:45:20;9.80;;;6.63;;
32964;SDS011;19317;48.226;11.686;2022-10-31T23:50:11;11.90;;;6.73;;
32964;SDS011;19317;48.226;11.686;2022-10-31T23:55:02;8.60;;;6.20;;
32964;SDS011;19317;48.226;11.686;2022-10-31T23:59:53;9.07;;;5.27;;
